Time,TemperatureF,DewpointF,PressureIn,WindDirection,WindDirectionDegrees,WindSpeedMPH,WindSpeedGustMPH,Humidity,HourlyPrecipIn,Conditions,Clouds,dailyrainin,SoftwareType,DateUTC
2013-04-11 00:00:00,43.3,42.0,29.75,SSE,161,0.0,0.0,95,0.00,,---,0.00,VWS V14.00,2013-04-11 04:00:00,
2013-04-11 00:01:00,43.3,42.0,29.75,SSE,161,0.0,1.0,95,0.00,,---,0.00,VWS V14.00,2013-04-11 04:01:00,
2013-04-11 00:06:00,43.4,42.1,29.74,SSE,167,0.0,2.0,95,0.00,,---,0.00,VWS V14.00,2013-04-11 04:06:00,
2013-04-11 00:11:00,43.6,42.3,29.75,SSE,167,0.0,2.0,95,0.00,,---,0.00,VWS V14.00,2013-04-11 04:11:00,
2013-04-11 00:16:00,43.7,42.4,29.76,NW,304,3.0,3.0,95,0.00,,---,0.00,VWS V14.00,2013-04-11 04:16:00,
2013-04-11 00:21:00,43.7,42.4,29.77,NNW,330,2.0,4.0,95,0.00,,---,0.00,VWS V14.00,2013-04-11 04:21:00,
2013-04-11 00:26:00,43.7,42.4,29.76,NNW,333,3.0,4.0,95,0.00,,---,0.00,VWS V14.00,2013-04-11 04:26:00,
2013-04-11 00:31:00,43.7,42.4,29.77,NW,313,0.0,3.0,95,0.00,,---,0.00,VWS V14.00,2013-04-11 04:31:00,
2013-04-11 00:36:00,43.9,42.6,29.77,NW,313,0.0,3.0,95,0.00,,---,0.00,VWS V14.00,2013-04-11 04:36:00,
2013-04-11 00:41:00,44.0,42.7,29.78,NW,313,0.0,3.0,95,0.00,,---,0.00,VWS V14.00,2013-04-11 04:41:00,
2013-04-11 00:46:00,44.1,42.8,29.77,NW,313,3.0,3.0,95,0.00,,---,0.00,VWS V14.00,2013-04-11 04:46:00,
2013-04-11 00:51:00,44.2,42.9,29.77,NW,313,0.0,3.0,95,0.00,,---,0.00,VWS V14.00,2013-04-11 04:51:00,
2013-04-11 00:56:00,44.2,42.9,29.77,NW,313,1.0,3.0,95,0.00,,---,0.00,VWS V14.00,2013-04-11 04:56:00,
2013-04-11 01:01:00,44.2,42.9,29.76,NW,313,0.0,0.0,95,0.00,,---,0.00,VWS V14.00,2013-04-11 05:01:00,
2013-04-11 01:07:00,44.2,42.9,29.76,NW,313,0.0,1.0,95,0.00,,---,0.00,VWS V14.00,2013-04-11 05:07:00,
2013-04-11 01:12:00,44.3,43.0,29.76,North,5,3.0,4.0,95,0.00,,---,0.00,VWS V14.00,2013-04-11 05:12:00,
2013-04-11 01:17:00,44.4,43.1,29.76,NNE,17,2.0,5.0,95,0.00,,---,0.00,VWS V14.00,2013-04-11 05:17:00,
2013-04-11 01:22:00,44.4,43.1,29.76,NNE,30,4.0,5.0,95,0.00,,---,0.00,VWS V14.00,2013-04-11 05:22:00,
2013-04-11 01:27:00,44.3,43.0,29.75,NE,40,3.0,5.0,95,0.00,,---,0.00,VWS V14.00,2013-04-11 05:27:00,
2013-04-11 01:32:00,44.4,43.1,29.76,NNE,20,2.0,5.0,95,0.00,,---,0.00,VWS V14.00,2013-04-11 05:32:00,
2013-04-11 01:37:00,44.4,43.1,29.77,NW,326,1.0,5.0,95,0.00,,---,0.00,VWS V14.00,2013-04-11 05:37:00,
2013-04-11 01:42:00,44.2,42.9,29.78,NNW,345,4.0,5.0,95,0.00,,---,0.00,VWS V14.00,2013-04-11 05:42:00,
2013-04-11 01:47:00,44.1,42.8,29.78,NNW,330,3.0,6.0,95,0.01,,---,0.01,VWS V14.00,2013-04-11 05:47:00,
2013-04-11 01:52:00,43.7,42.4,29.78,North,9,2.0,9.0,95,0.01,,---,0.01,VWS V14.00,2013-04-11 05:52:00,
2013-04-11 01:57:00,43.6,42.3,29.77,NE,40,1.0,9.0,95,0.02,,---,0.02,VWS V14.00,2013-04-11 05:57:00,
2013-04-11 02:02:00,43.6,42.3,29.79,North,5,2.0,3.0,95,0.02,,---,0.02,VWS V14.00,2013-04-11 06:02:00,
2013-04-11 02:07:00,43.5,42.2,29.78,North,360,0.0,3.0,95,0.02,,---,0.02,VWS V14.00,2013-04-11 06:07:00,
2013-04-11 02:12:00,43.4,42.1,29.77,East,79,0.0,3.0,95,0.03,,---,0.03,VWS V14.00,2013-04-11 06:12:00,
2013-04-11 02:17:00,43.3,42.0,29.79,NNE,19,1.0,4.0,95,0.04,,---,0.04,VWS V14.00,2013-04-11 06:17:00,
2013-04-11 02:22:00,43.1,41.8,29.80,North,9,2.0,5.0,95,0.05,,---,0.05,VWS V14.00,2013-04-11 06:22:00,
2013-04-11 02:27:00,43.1,41.8,29.80,NNW,333,2.0,5.0,95,0.06,,---,0.06,VWS V14.00,2013-04-11 06:27:00,
2013-04-11 02:32:00,43.1,41.8,29.80,NNW,329,0.0,3.0,95,0.07,,---,0.07,VWS V14.00,2013-04-11 06:32:00,
2013-04-11 02:37:00,43.1,41.8,29.79,NNE,21,2.0,3.0,95,0.08,,---,0.08,VWS V14.00,2013-04-11 06:37:00,
2013-04-11 02:42:00,43.0,41.7,29.79,NE,41,2.0,3.0,95,0.09,,---,0.09,VWS V14.00,2013-04-11 06:42:00,
2013-04-11 02:47:00,42.9,41.6,29.78,NE,56,1.0,3.0,95,0.09,,---,0.10,VWS V14.00,2013-04-11 06:47:00,
2013-04-11 02:52:00,42.8,41.5,29.76,East,86,4.0,6.0,95,0.11,,---,0.12,VWS V14.00,2013-04-11 06:52:00,
2013-04-11 02:57:00,42.8,41.5,29.76,East,83,2.0,6.0,95,0.12,,---,0.13,VWS V14.00,2013-04-11 06:57:00,
2013-04-11 03:02:00,42.7,41.4,29.76,ENE,76,4.0,5.0,95,0.11,,---,0.13,VWS V14.00,2013-04-11 07:02:00,
2013-04-11 03:07:00,42.6,41.3,29.75,NE,47,4.0,8.0,95,0.11,,---,0.13,VWS V14.00,2013-04-11 07:07:00,
2013-04-11 03:12:00,42.4,41.1,29.74,NE,53,3.0,8.0,95,0.12,,---,0.14,VWS V14.00,2013-04-11 07:12:00,
2013-04-11 03:17:00,42.3,41.0,29.75,ENE,69,4.0,7.0,95,0.10,,---,0.14,VWS V14.00,2013-04-11 07:17:00,
2013-04-11 03:22:00,42.2,40.9,29.74,ENE,69,3.0,7.0,95,0.10,,---,0.14,VWS V14.00,2013-04-11 07:22:00,
2013-04-11 03:27:00,42.2,40.9,29.75,NNE,29,0.0,7.0,95,0.10,,---,0.14,VWS V14.00,2013-04-11 07:27:00,
2013-04-11 03:32:00,42.4,41.1,29.75,NNE,33,5.0,6.0,95,0.08,,---,0.14,VWS V14.00,2013-04-11 07:32:00,
2013-04-11 03:37:00,42.4,41.1,29.76,North,360,5.0,9.0,95,0.08,,---,0.14,VWS V14.00,2013-04-11 07:37:00,
2013-04-11 03:42:00,42.5,41.2,29.76,NNE,28,0.0,9.0,95,0.08,,---,0.14,VWS V14.00,2013-04-11 07:42:00,
2013-04-11 03:47:00,42.6,41.3,29.75,ENE,63,3.0,6.0,95,0.05,,---,0.14,VWS V14.00,2013-04-11 07:47:00,
2013-04-11 03:52:00,42.6,41.3,29.73,ENE,78,11.0,11.0,95,0.05,,---,0.14,VWS V14.00,2013-04-11 07:52:00,
2013-04-11 03:57:00,42.5,41.2,29.73,ENE,57,8.0,15.0,95,0.06,,---,0.15,VWS V14.00,2013-04-11 07:57:00,
2013-04-11 04:02:00,42.4,41.1,29.73,ESE,103,5.0,12.0,95,0.02,,---,0.15,VWS V14.00,2013-04-11 08:02:00,
2013-04-11 04:07:00,42.5,41.4,29.73,SE,131,7.0,12.0,96,0.02,,---,0.15,VWS V14.00,2013-04-11 08:07:00,
2013-04-11 04:12:00,42.5,41.4,29.73,NE,49,2.0,12.0,96,0.02,,---,0.15,VWS V14.00,2013-04-11 08:12:00,
2013-04-11 04:17:00,42.6,41.5,29.73,ENE,73,3.0,5.0,96,0.01,,---,0.15,VWS V14.00,2013-04-11 08:17:00,
2013-04-11 04:22:00,42.6,41.5,29.73,East,101,6.0,7.0,96,0.01,,---,0.15,VWS V14.00,2013-04-11 08:22:00,
2013-04-11 04:27:00,42.7,41.6,29.73,SE,134,6.0,7.0,96,0.01,,---,0.15,VWS V14.00,2013-04-11 08:27:00,
2013-04-11 04:32:00,42.8,41.7,29.73,ESE,118,5.0,6.0,96,0.01,,---,0.15,VWS V14.00,2013-04-11 08:32:00,
2013-04-11 04:37:00,42.9,41.8,29.73,SE,138,0.0,6.0,96,0.01,,---,0.15,VWS V14.00,2013-04-11 08:37:00,
2013-04-11 04:42:00,42.9,41.8,29.73,ENE,60,1.0,6.0,96,0.01,,---,0.15,VWS V14.00,2013-04-11 08:42:00,
2013-04-11 04:47:00,43.0,41.9,29.74,NE,46,2.0,2.0,96,0.01,,---,0.15,VWS V14.00,2013-04-11 08:47:00,
2013-04-11 04:53:00,43.1,42.0,29.75,North,355,2.0,4.0,96,0.01,,---,0.15,VWS V14.00,2013-04-11 08:53:00,
2013-04-11 04:58:00,43.1,42.0,29.74,NE,56,4.0,4.0,96,0.01,,---,0.15,VWS V14.00,2013-04-11 08:58:00,
2013-04-11 05:03:00,43.1,42.0,29.74,ENE,66,5.0,5.0,96,0.00,,---,0.15,VWS V14.00,2013-04-11 09:03:00,
2013-04-11 05:08:00,43.1,42.0,29.74,NNE,33,5.0,8.0,96,0.00,,---,0.15,VWS V14.00,2013-04-11 09:08:00,
2013-04-11 05:13:00,43.0,41.9,29.73,NE,53,4.0,8.0,96,0.00,,---,0.15,VWS V14.00,2013-04-11 09:13:00,
2013-04-11 05:18:00,42.9,41.8,29.73,NE,55,10.0,11.0,96,0.00,,---,0.15,VWS V14.00,2013-04-11 09:18:00,
2013-04-11 05:23:00,42.8,41.5,29.73,NE,51,6.0,11.0,95,0.00,,---,0.15,VWS V14.00,2013-04-11 09:23:00,
2013-04-11 05:28:00,42.7,41.4,29.73,NE,51,5.0,12.0,95,0.00,,---,0.15,VWS V14.00,2013-04-11 09:28:00,
2013-04-11 05:33:00,42.8,41.7,29.73,NE,51,4.0,11.0,96,0.00,,---,0.15,VWS V14.00,2013-04-11 09:33:00,
2013-04-11 05:38:00,42.8,41.7,29.72,East,93,7.0,11.0,96,0.00,,---,0.15,VWS V14.00,2013-04-11 09:38:00,
2013-04-11 05:43:00,42.9,41.8,29.71,ENE,64,4.0,11.0,96,0.00,,---,0.15,VWS V14.00,2013-04-11 09:43:00,
2013-04-11 05:48:00,42.9,41.8,29.71,ENE,73,6.0,11.0,96,0.00,,---,0.15,VWS V14.00,2013-04-11 09:48:00,
2013-04-11 05:53:00,43.0,41.9,29.71,ENE,64,5.0,11.0,96,0.00,,---,0.15,VWS V14.00,2013-04-11 09:53:00,
2013-04-11 05:58:00,43.1,42.0,29.71,ENE,75,6.0,11.0,96,0.00,,---,0.15,VWS V14.00,2013-04-11 09:58:00,
2013-04-11 06:03:00,43.2,42.1,29.71,ENE,75,5.0,12.0,96,0.00,,---,0.15,VWS V14.00,2013-04-11 10:03:00,
2013-04-11 06:08:00,43.2,42.1,29.71,ENE,64,6.0,12.0,96,0.00,,---,0.15,VWS V14.00,2013-04-11 10:08:00,
2013-04-11 06:13:00,43.2,42.1,29.70,ENE,71,8.0,12.0,96,0.00,,---,0.15,VWS V14.00,2013-04-11 10:13:00,
2013-04-11 06:18:00,43.2,42.1,29.69,East,86,7.0,11.0,96,0.00,,---,0.15,VWS V14.00,2013-04-11 10:18:00,
2013-04-11 06:23:00,43.3,42.2,29.70,NE,52,3.0,11.0,96,0.00,,---,0.15,VWS V14.00,2013-04-11 10:23:00,
2013-04-11 06:28:00,43.4,42.3,29.70,ESE,106,6.0,11.0,96,0.00,,---,0.15,VWS V14.00,2013-04-11 10:28:00,
2013-04-11 06:33:00,43.5,42.4,29.69,ESE,112,4.0,8.0,96,0.00,,---,0.15,VWS V14.00,2013-04-11 10:33:00,
2013-04-11 06:38:00,43.7,42.6,29.70,ESE,111,6.0,9.0,96,0.00,,---,0.15,VWS V14.00,2013-04-11 10:38:00,
2013-04-11 06:43:00,43.8,42.7,29.70,ENE,64,2.0,9.0,96,0.00,,---,0.15,VWS V14.00,2013-04-11 10:43:00,
2013-04-11 06:48:00,44.0,42.9,29.70,SE,132,7.0,9.0,96,0.00,,---,0.15,VWS V14.00,2013-04-11 10:48:00,
2013-04-11 06:53:00,44.2,43.1,29.70,East,98,4.0,9.0,96,0.00,,---,0.15,VWS V14.00,2013-04-11 10:53:00,
2013-04-11 06:58:00,44.3,43.2,29.71,NE,55,0.0,9.0,96,0.00,,---,0.15,VWS V14.00,2013-04-11 10:58:00,
2013-04-11 07:03:00,44.3,43.2,29.72,North,349,0.0,3.0,96,0.00,,---,0.15,VWS V14.00,2013-04-11 11:03:00,
2013-04-11 07:08:00,44.4,43.3,29.72,ENE,67,3.0,3.0,96,0.00,,---,0.15,VWS V14.00,2013-04-11 11:08:00,
2013-04-11 07:13:00,44.4,43.3,29.72,East,98,4.0,5.0,96,0.00,,---,0.15,VWS V14.00,2013-04-11 11:13:00,
2013-04-11 07:18:00,44.5,43.4,29.73,East,90,0.0,1.0,96,0.00,,---,0.15,VWS V14.00,2013-04-11 11:18:00,
2013-04-11 07:23:00,44.5,43.4,29.72,East,84,1.0,5.0,96,0.00,,---,0.15,VWS V14.00,2013-04-11 11:23:00,
2013-04-11 07:28:00,44.5,43.4,29.73,SE,129,0.0,5.0,96,0.00,,---,0.15,VWS V14.00,2013-04-11 11:28:00,
2013-04-11 07:33:00,44.6,43.5,29.73,SE,128,1.0,4.0,96,0.00,,---,0.15,VWS V14.00,2013-04-11 11:33:00,
2013-04-11 07:38:00,44.6,43.5,29.73,SE,126,0.0,4.0,96,0.00,,---,0.15,VWS V14.00,2013-04-11 11:38:00,
2013-04-11 07:43:00,44.7,43.6,29.73,East,90,0.0,4.0,96,0.00,,---,0.15,VWS V14.00,2013-04-11 11:43:00,
2013-04-11 07:48:00,44.7,43.6,29.73,ENE,76,0.0,2.0,96,0.00,,---,0.15,VWS V14.00,2013-04-11 11:48:00,
2013-04-11 07:53:00,44.7,43.6,29.73,ENE,76,1.0,2.0,96,0.00,,---,0.15,VWS V14.00,2013-04-11 11:53:00,
2013-04-11 07:58:00,44.9,43.8,29.73,NE,54,3.0,4.0,96,0.00,,---,0.15,VWS V14.00,2013-04-11 11:58:00,
2013-04-11 08:03:00,44.9,43.8,29.74,East,81,0.0,3.0,96,0.00,,---,0.15,VWS V14.00,2013-04-11 12:03:00,
2013-04-11 08:08:00,45.0,43.9,29.73,ENE,57,3.0,4.0,96,0.00,,---,0.15,VWS V14.00,2013-04-11 12:08:00,
2013-04-11 08:13:00,45.0,43.9,29.73,ENE,78,5.0,5.0,96,0.00,,---,0.15,VWS V14.00,2013-04-11 12:13:00,
2013-04-11 08:18:00,45.0,43.9,29.73,ESE,103,2.0,8.0,96,0.00,,---,0.15,VWS V14.00,2013-04-11 12:18:00,
2013-04-11 08:23:00,45.0,43.9,29.73,East,79,2.0,8.0,96,0.00,,---,0.15,VWS V14.00,2013-04-11 12:23:00,
2013-04-11 08:28:00,45.0,43.9,29.73,East,101,4.0,8.0,96,0.00,,---,0.15,VWS V14.00,2013-04-11 12:28:00,
2013-04-11 08:33:00,45.0,43.9,29.73,East,91,4.0,7.0,96,0.00,,---,0.15,VWS V14.00,2013-04-11 12:33:00,
2013-04-11 08:38:00,45.1,44.0,29.74,NE,42,0.0,7.0,96,0.00,,---,0.15,VWS V14.00,2013-04-11 12:38:00,
2013-04-11 08:43:00,45.1,44.0,29.74,NE,52,0.0,7.0,96,0.00,,---,0.15,VWS V14.00,2013-04-11 12:43:00,
2013-04-11 08:48:00,45.2,44.1,29.74,NE,42,3.0,5.0,96,0.00,,---,0.15,VWS V14.00,2013-04-11 12:48:00,
2013-04-11 08:53:00,45.3,44.2,29.74,ENE,63,3.0,5.0,96,0.00,,---,0.15,VWS V14.00,2013-04-11 12:53:00,
2013-04-11 20:31:00,45.3,44.2,29.74,NE,37,2.0,5.0,96,0.00,,---,0.15,VWS V14.00,2013-04-12 00:31:00,
2013-04-11 20:36:00,47.3,44.8,29.65,East,80,4.0,7.0,91,0.01,,---,0.16,VWS V14.00,2013-04-12 00:36:00,
2013-04-11 20:42:00,47.2,44.7,29.65,NE,54,3.0,7.0,91,0.01,,---,0.16,VWS V14.00,2013-04-12 00:42:00,
2013-04-11 20:47:00,47.2,44.7,29.65,ESE,115,2.0,6.0,91,0.00,,---,0.16,VWS V14.00,2013-04-12 00:47:00,
2013-04-11 20:52:00,47.1,44.6,29.65,East,91,4.0,12.0,91,0.00,,---,0.16,VWS V14.00,2013-04-12 00:52:00,
2013-04-11 20:57:00,47.0,44.5,29.65,ESE,111,4.0,12.0,91,0.00,,---,0.16,VWS V14.00,2013-04-12 00:57:00,
2013-04-11 21:02:00,47.0,44.5,29.64,East,98,5.0,6.0,91,0.00,,---,0.16,VWS V14.00,2013-04-12 01:02:00,
2013-04-11 21:07:00,46.9,44.4,29.64,ESE,103,6.0,13.0,91,0.00,,---,0.16,VWS V14.00,2013-04-12 01:07:00,
2013-04-11 21:12:00,46.8,44.0,29.63,ESE,109,9.0,13.0,90,0.00,,---,0.16,VWS V14.00,2013-04-12 01:12:00,
2013-04-11 21:17:00,46.7,43.9,29.63,SE,129,15.0,15.0,90,0.00,,---,0.16,VWS V14.00,2013-04-12 01:17:00,
2013-04-11 21:22:00,46.6,43.8,29.63,SE,142,4.0,16.0,90,0.00,,---,0.16,VWS V14.00,2013-04-12 01:22:00,
2013-04-11 21:27:00,46.5,43.7,29.63,ENE,77,7.0,19.0,90,0.00,,---,0.16,VWS V14.00,2013-04-12 01:27:00,
2013-04-11 21:32:00,46.5,43.7,29.63,East,97,4.0,8.0,90,0.00,,---,0.16,VWS V14.00,2013-04-12 01:32:00,
2013-04-11 21:37:00,46.5,43.7,29.63,ESE,109,6.0,9.0,90,0.00,,---,0.16,VWS V14.00,2013-04-12 01:37:00,
2013-04-11 21:42:00,46.4,43.6,29.62,East,101,7.0,9.0,90,0.00,,---,0.16,VWS V14.00,2013-04-12 01:42:00,
2013-04-11 21:47:00,46.4,43.6,29.62,ESE,105,9.0,13.0,90,0.00,,---,0.16,VWS V14.00,2013-04-12 01:47:00,
2013-04-11 21:52:00,46.4,43.6,29.62,East,82,5.0,13.0,90,0.00,,---,0.16,VWS V14.00,2013-04-12 01:52:00,
2013-04-11 21:57:00,46.4,43.6,29.62,SE,129,5.0,13.0,90,0.00,,---,0.16,VWS V14.00,2013-04-12 01:57:00,
2013-04-11 22:02:00,46.4,43.6,29.61,East,86,6.0,11.0,90,0.00,,---,0.16,VWS V14.00,2013-04-12 02:02:00,
2013-04-11 22:07:00,46.4,43.6,29.61,East,84,8.0,13.0,90,0.00,,---,0.16,VWS V14.00,2013-04-12 02:07:00,
2013-04-11 22:12:00,46.4,43.3,29.61,ESE,104,5.0,15.0,89,0.00,,---,0.16,VWS V14.00,2013-04-12 02:12:00,
2013-04-11 22:17:00,46.4,43.3,29.60,ENE,74,11.0,14.0,89,0.00,,---,0.16,VWS V14.00,2013-04-12 02:17:00,
2013-04-11 22:22:00,46.4,43.3,29.59,ESE,106,8.0,14.0,89,0.00,,---,0.16,VWS V14.00,2013-04-12 02:22:00,
2013-04-11 22:27:00,46.4,43.3,29.59,East,101,8.0,19.0,89,0.00,,---,0.16,VWS V14.00,2013-04-12 02:27:00,
2013-04-11 22:32:00,46.4,43.3,29.59,East,94,6.0,14.0,89,0.00,,---,0.16,VWS V14.00,2013-04-12 02:32:00,
2013-04-11 22:37:00,46.4,43.3,29.58,ENE,61,6.0,18.0,89,0.00,,---,0.16,VWS V14.00,2013-04-12 02:37:00,
2013-04-11 22:42:00,46.4,43.3,29.58,ESE,109,9.0,18.0,89,0.00,,---,0.16,VWS V14.00,2013-04-12 02:42:00,
2013-04-11 22:47:00,46.5,43.4,29.58,East,88,5.0,13.0,89,0.00,,---,0.16,VWS V14.00,2013-04-12 02:47:00,
2013-04-11 22:52:00,46.4,43.3,29.58,East,86,4.0,13.0,89,0.00,,---,0.16,VWS V14.00,2013-04-12 02:52:00,
2013-04-11 22:57:00,46.5,43.7,29.58,East,94,8.0,14.0,90,0.00,,---,0.16,VWS V14.00,2013-04-12 02:57:00,
2013-04-11 23:02:00,46.6,43.8,29.57,East,101,11.0,15.0,90,0.00,,---,0.16,VWS V14.00,2013-04-12 03:02:00,
2013-04-11 23:07:00,46.7,44.2,29.58,East,94,12.0,15.0,91,0.00,,---,0.16,VWS V14.00,2013-04-12 03:07:00,
2013-04-11 23:12:00,46.8,44.3,29.57,SE,125,7.0,15.0,91,0.00,,---,0.16,VWS V14.00,2013-04-12 03:12:00,
2013-04-11 23:17:00,46.8,44.3,29.56,ESE,115,13.0,15.0,91,0.00,,---,0.16,VWS V14.00,2013-04-12 03:17:00,
2013-04-11 23:23:00,46.9,44.4,29.55,ESE,108,12.0,15.0,91,0.00,,---,0.16,VWS V14.00,2013-04-12 03:23:00,
2013-04-11 23:28:00,47.0,44.8,29.55,ESE,115,8.0,16.0,92,0.00,,---,0.16,VWS V14.00,2013-04-12 03:28:00,
2013-04-11 23:33:00,47.0,44.8,29.55,ESE,112,6.0,13.0,92,0.00,,---,0.16,VWS V14.00,2013-04-12 03:33:00,
2013-04-11 23:38:00,47.0,44.8,29.54,SSE,158,10.0,15.0,92,0.00,,---,0.16,VWS V14.00,2013-04-12 03:38:00,
2013-04-11 23:43:00,47.1,44.9,29.54,SE,125,11.0,18.0,92,0.00,,---,0.16,VWS V14.00,2013-04-12 03:43:00,
2013-04-11 23:48:00,47.2,45.0,29.54,SE,126,12.0,21.0,92,0.00,,---,0.16,VWS V14.00,2013-04-12 03:48:00,
2013-04-11 23:53:00,47.3,45.4,29.53,ESE,114,11.0,21.0,93,0.00,,---,0.16,VWS V14.00,2013-04-12 03:53:00,
2013-04-11 23:58:00,47.4,45.5,29.53,SE,128,7.0,21.0,93,0.00,,---,0.16,VWS V14.00,2013-04-12 03:58:00,